Time;durP1;ratioP1;P1;durP2;ratioP2;P2;SDS_P1;SDS_P2;PMS_P1;PMS_P2;Temp;Humidity;BMP_temperature;BMP_pressure;BME280_temperature;BME280_humidity;BME280_pressure;Samples;Min_cycle;Max_cycle;Signal;HPM_P1;HPM_P2
2022/09/07 00:00:08;;;;;;;6.77;5.83;;;19.50;89.00;;;;;;6133446;23;20212;-94
2022/09/07 00:02:36;;;;;;;7.07;5.63;;;19.40;91.30;;;;;;6134343;23;20202;-94
2022/09/07 00:05:10;;;;;;;6.77;6.13;;;19.30;92.20;;;;;;6142307;23;20157;-94
2022/09/07 00:07:40;;;;;;;8.83;6.83;;;19.40;91.20;;;;;;6152412;23;20163;-93
2022/09/07 00:10:33;;;;;;;8.67;5.47;;;19.40;93.00;;;;;;6126286;23;20209;-95
2022/09/07 00:13:05;;;;;;;7.40;6.63;;;19.30;92.70;;;;;;6141684;23;20244;-94
2022/09/07 00:16:21;;;;;;;7.47;6.77;;;19.20;94.10;;;;;;6137753;23;20496;-94
2022/09/07 00:19:07;;;;;;;7.13;6.47;;;19.20;94.20;;;;;;6139367;23;20186;-93
2022/09/07 00:21:48;;;;;;;7.30;6.60;;;19.40;94.30;;;;;;6136909;23;20205;-92
2022/09/07 00:25:09;;;;;;;7.27;6.50;;;19.40;92.10;;;;;;6123875;23;20177;-93
2022/09/07 00:27:37;;;;;;;8.80;7.90;;;19.40;91.80;;;;;;6101737;23;20234;-93
2022/09/07 00:30:09;;;;;;;9.80;8.53;;;19.40;92.60;;;;;;6070299;23;20151;-93
2022/09/07 00:35:59;;;;;;;10.80;8.30;;;19.30;93.80;;;;;;6076812;23;20189;-93
2022/09/07 00:41:49;;;;;;;9.50;7.63;;;19.20;96.40;;;;;;6077581;23;20634;-93
2022/09/07 00:47:58;;;;;;;8.07;7.10;;;19.50;95.20;;;;;;6076769;23;20192;-94
2022/09/07 00:50:38;;;;;;;8.67;7.23;;;19.40;92.40;;;;;;6050498;23;20234;-94
2022/09/07 00:53:32;;;;;;;8.33;7.37;;;19.40;93.20;;;;;;6050913;23;20253;-96
2022/09/07 00:56:01;;;;;;;8.63;7.33;;;19.30;93.40;;;;;;6027315;23;20191;-93
2022/09/07 00:59:05;;;;;;;8.07;7.20;;;19.20;94.70;;;;;;6071320;23;20151;-93
2022/09/07 01:01:32;;;;;;;8.27;7.10;;;19.30;95.60;;;;;;6056247;23;20649;-94
2022/09/07 01:07:20;;;;;;;8.80;7.90;;;19.30;96.10;;;;;;6076119;23;20183;-94
2022/09/07 01:09:49;;;;;;;9.23;7.17;;;19.40;95.70;;;;;;6051543;23;20481;-93
2022/09/07 01:12:53;;;;;;;8.30;7.50;;;19.50;95.20;;;;;;6051202;23;20151;-94
2022/09/07 01:15:30;;;;;;;8.27;7.23;;;19.60;94.40;;;;;;6049094;23;20221;-95
2022/09/07 01:21:39;;;;;;;8.97;8.07;;;19.50;92.70;;;;;;6096191;23;20218;-92
2022/09/07 01:24:58;;;;;;;9.50;7.90;;;19.40;95.50;;;;;;6067965;23;20175;-94
2022/09/07 01:27:56;;;;;;;7.90;6.93;;;19.40;96.70;;;;;;6057848;23;20195;-93
2022/09/07 01:30:26;;;;;;;8.53;7.47;;;19.50;96.50;;;;;;6051057;23;20179;-94
2022/09/07 01:37:05;;;;;;;11.93;8.77;;;19.40;96.70;;;;;;6075628;23;20193;-94
2022/09/07 01:39:46;;;;;;;10.60;8.57;;;19.20;96.30;;;;;;6048977;23;20172;-94
2022/09/07 01:42:15;;;;;;;11.60;9.93;;;19.20;97.50;;;;;;6048658;23;20151;-93
2022/09/07 01:45:01;;;;;;;10.30;9.40;;;19.00;96.90;;;;;;6048210;23;20202;-93
2022/09/07 01:48:03;;;;;;;10.97;9.87;;;19.00;98.80;;;;;;6048190;23;20198;-94
2022/09/07 01:50:42;;;;;;;11.80;10.70;;;19.10;98.10;;;;;;6050892;23;20153;-93
2022/09/07 01:53:59;;;;;;;12.20;11.00;;;19.20;98.30;;;;;;6061090;23;20152;-94
2022/09/07 01:56:37;;;;;;;12.33;11.13;;;19.10;99.40;;;;;;6059537;23;20238;-95
2022/09/07 01:59:38;;;;;;;12.80;11.53;;;19.20;99.90;;;;;;6058923;23;20155;-95
2022/09/07 02:02:29;;;;;;;13.50;12.20;;;19.20;99.90;;;;;;6054853;23;20152;-94
2022/09/07 02:05:34;;;;;;;13.60;12.33;;;19.20;97.90;;;;;;6061656;23;20158;-95
2022/09/07 02:08:11;;;;;;;13.80;12.50;;;19.10;99.20;;;;;;6054642;23;20218;-94
2022/09/07 02:11:27;;;;;;;13.77;12.40;;;19.00;99.90;;;;;;6051370;23;20178;-94
2022/09/07 02:13:59;;;;;;;14.40;13.00;;;19.00;99.90;;;;;;6069666;23;20157;-94
2022/09/07 02:17:01;;;;;;;13.60;12.37;;;19.00;99.90;;;;;;6065916;23;20184;-94
2022/09/07 02:19:58;;;;;;;14.43;13.03;;;19.10;99.90;;;;;;6071805;23;20188;-94
2022/09/07 02:22:59;;;;;;;14.53;13.33;;;19.00;99.90;;;;;;6095008;23;20178;-94
2022/09/07 02:28:50;;;;;;;14.57;13.27;;;19.00;99.90;;;;;;6095427;23;20280;-94
2022/09/07 02:31:30;;;;;;;14.10;12.80;;;19.00;99.10;;;;;;6070929;23;20162;-96
2022/09/07 02:34:00;;;;;;;13.27;12.00;;;19.00;99.90;;;;;;6068673;23;20153;-94
2022/09/07 02:39:53;;;;;;;11.87;10.87;;;19.10;97.20;;;;;;6084861;23;20173;-94
2022/09/07 02:42:19;;;;;;;12.43;11.23;;;19.20;94.70;;;;;;6047790;23;20193;-93
2022/09/07 02:44:47;;;;;;;12.87;11.30;;;19.10;92.10;;;;;;6035443;23;20164;-95
2022/09/07 02:47:57;;;;;;;12.07;10.97;;;19.20;91.20;;;;;;6071538;23;20167;-93
2022/09/07 02:51:01;;;;;;;11.40;10.23;;;19.30;90.40;;;;;;6071453;23;20171;-93
2022/09/07 02:54:03;;;;;;;11.13;10.13;;;19.50;91.00;;;;;;6071602;23;20197;-95
2022/09/07 03:07:33;;;;;;;12.67;11.33;;;19.20;92.30;;;;;;6079698;23;20207;-96
2022/09/07 03:10:41;;;;;;;10.97;9.83;;;19.00;91.90;;;;;;6048435;23;20191;-94
2022/09/07 03:13:28;;;;;;;11.60;10.40;;;19.00;93.80;;;;;;6070847;23;20170;-92
2022/09/07 03:15:55;;;;;;;11.80;10.60;;;19.20;93.90;;;;;;6062918;23;21500;-94
2022/09/07 03:19:10;;;;;;;12.00;10.90;;;19.20;92.90;;;;;;6157183;23;20205;-94
2022/09/07 03:24:58;;;;;;;13.27;11.20;;;19.10;93.70;;;;;;6161847;23;20651;-93
2022/09/07 03:27:41;;;;;;;12.97;11.77;;;19.40;92.40;;;;;;6137084;23;20164;-95
2022/09/07 03:30:18;;;;;;;15.23;12.67;;;19.60;92.00;;;;;;6111481;23;20189;-95
2022/09/07 03:32:52;;;;;;;14.33;13.03;;;19.30;89.60;;;;;;6134666;23;20575;-94
2022/09/07 03:35:21;;;;;;;14.10;12.60;;;19.40;91.40;;;;;;6134105;23;20543;-95
2022/09/07 03:38:35;;;;;;;14.90;13.33;;;19.40;93.30;;;;;;6134006;23;20540;-95
2022/09/07 03:41:18;;;;;;;15.23;13.77;;;19.50;92.80;;;;;;6133798;23;20683;-95
2022/09/07 03:43:44;;;;;;;15.60;13.60;;;19.60;92.30;;;;;;6136173;23;20158;-94
2022/09/07 03:46:10;;;;;;;15.90;14.40;;;19.70;91.30;;;;;;6139186;23;20169;-95
2022/09/07 03:48:39;;;;;;;16.03;14.53;;;19.70;90.90;;;;;;6182181;23;20145;-93
2022/09/07 03:51:10;;;;;;;16.50;14.97;;;19.80;90.00;;;;;;6157896;23;20139;-93
2022/09/07 03:53:40;;;;;;;16.73;15.07;;;19.80;88.70;;;;;;6146778;23;20182;-94
2022/09/07 03:56:14;;;;;;;16.77;15.20;;;19.90;86.10;;;;;;6141014;23;20229;-95
2022/09/07 03:59:04;;;;;;;17.23;15.53;;;19.90;85.40;;;;;;6139570;23;20147;-94
2022/09/07 04:04:52;;;;;;;17.53;15.93;;;20.10;82.50;;;;;;6163974;23;20151;-93
2022/09/07 04:07:31;;;;;;;17.53;15.43;;;20.20;76.50;;;;;;6114750;23;20160;-94
2022/09/07 04:10:04;;;;;;;17.83;16.13;;;20.20;74.50;;;;;;6146209;23;20150;-93
2022/09/07 04:12:40;;;;;;;18.27;16.33;;;20.10;72.30;;;;;;6154200;23;20163;-93
2022/09/07 04:18:30;;;;;;;18.37;16.77;;;20.20;70.50;;;;;;6176138;23;20184;-93
2022/09/07 04:20:59;;;;;;;19.83;17.87;;;20.20;70.30;;;;;;6142254;23;20602;-92
2022/09/07 04:23:24;;;;;;;18.60;16.70;;;19.80;74.40;;;;;;6142038;23;20485;-92
2022/09/07 04:29:16;;;;;;;18.10;16.47;;;20.20;69.30;;;;;;6170449;23;20150;-92
2022/09/07 04:31:44;;;;;;;19.97;18.17;;;20.20;66.70;;;;;;6146996;23;20159;-92
2022/09/07 04:34:33;;;;;;;19.07;17.30;;;20.20;66.10;;;;;;6145217;23;20212;-93
2022/09/07 04:37:27;;;;;;;18.23;16.43;;;20.20;66.10;;;;;;6116044;23;20207;-94
2022/09/07 04:40:09;;;;;;;18.17;16.37;;;20.20;66.30;;;;;;6181783;23;20163;-93
2022/09/07 04:42:50;;;;;;;18.30;16.50;;;20.10;64.30;;;;;;6129786;23;20159;-93
2022/09/07 04:45:17;;;;;;;17.93;16.33;;;20.00;68.10;;;;;;6168004;23;20207;-94
2022/09/07 04:51:07;;;;;;;17.27;15.57;;;19.80;76.80;;;;;;6163874;23;20207;-94
2022/09/07 04:54:00;;;;;;;16.13;14.60;;;19.70;84.20;;;;;;6139719;23;20151;-94
2022/09/07 04:56:35;;;;;;;16.47;14.87;;;19.70;88.40;;;;;;6138284;23;20195;-94
2022/09/07 04:59:16;;;;;;;18.13;15.73;;;19.70;92.00;;;;;;6139540;23;20200;-93
2022/09/07 05:02:32;;;;;;;15.47;13.77;;;19.60;93.30;;;;;;6140794;23;20202;-93
2022/09/07 05:05:09;;;;;;;14.70;13.23;;;19.80;91.70;;;;;;6140120;23;20208;-92
2022/09/07 05:07:37;;;;;;;16.87;14.00;;;19.70;91.00;;;;;;6143185;23;20173;-93
2022/09/07 05:10:08;;;;;;;15.67;12.07;;;19.50;92.20;;;;;;6119439;23;20151;-94
2022/09/07 05:12:39;;;;;;;13.57;12.07;;;19.50;93.40;;;;;;6138537;23;20154;-93
2022/09/07 05:15:19;;;;;;;14.27;11.87;;;19.30;93.80;;;;;;6142245;23;20517;-93
2022/09/07 05:17:53;;;;;;;14.87;12.10;;;19.50;93.90;;;;;;6153143;23;20163;-93
2022/09/07 05:20:41;;;;;;;13.77;12.47;;;19.60;93.20;;;;;;6153823;23;20261;-96
2022/09/07 05:23:25;;;;;;;15.73;12.30;;;19.60;92.00;;;;;;6155417;23;20142;-93
2022/09/07 05:26:02;;;;;;;32.50;29.70;;;19.60;91.90;;;;;;6119901;23;20186;-93
2022/09/07 05:28:34;;;;;;;15.23;13.83;;;19.50;91.90;;;;;;6142547;23;20586;-96
2022/09/07 05:31:22;;;;;;;14.73;12.90;;;19.40;91.90;;;;;;6166890;23;20479;-94
2022/09/07 05:33:53;;;;;;;13.40;12.00;;;19.40;92.10;;;;;;6115090;23;20154;-92
2022/09/07 05:36:25;;;;;;;14.63;12.67;;;19.40;92.00;;;;;;6144027;23;20194;-92
2022/09/07 05:38:56;;;;;;;12.80;11.50;;;19.40;91.70;;;;;;6131986;23;20147;-93
2022/09/07 05:47:21;;;;;;;16.10;13.93;;;19.50;92.60;;;;;;6166632;23;20227;-93
2022/09/07 05:49:53;;;;;;;17.00;15.17;;;19.50;91.50;;;;;;6137372;23;20146;-90
2022/09/07 05:52:19;;;;;;;17.43;15.73;;;19.50;91.20;;;;;;6134270;23;20163;-90
2022/09/07 05:54:46;;;;;;;18.20;16.23;;;19.60;90.20;;;;;;6133578;23;20250;-93
2022/09/07 05:57:14;;;;;;;20.10;17.17;;;19.50;88.70;;;;;;6139607;23;20220;-93
2022/09/07 05:59:39;;;;;;;19.50;17.33;;;19.60;88.00;;;;;;6132974;23;20141;-92
2022/09/07 06:02:16;;;;;;;19.67;17.57;;;19.50;87.50;;;;;;6180188;23;20146;-94
2022/09/07 06:04:46;;;;;;;19.20;17.30;;;19.50;88.20;;;;;;6148379;23;20202;-92
2022/09/07 06:07:31;;;;;;;20.97;18.80;;;19.50;86.60;;;;;;6112425;23;20149;-92
2022/09/07 06:10:06;;;;;;;24.67;22.13;;;19.40;86.50;;;;;;6136382;23;20153;-94
2022/09/07 06:12:31;;;;;;;20.37;18.27;;;19.50;86.80;;;;;;6134018;23;20248;-92
2022/09/07 06:14:57;;;;;;;19.80;17.83;;;19.40;86.80;;;;;;6133549;23;20256;-94
2022/09/07 06:17:23;;;;;;;22.70;18.70;;;19.40;88.30;;;;;;6135157;23;20190;-90
2022/09/07 06:19:49;;;;;;;20.70;18.10;;;19.40;89.90;;;;;;6135214;23;20150;-92
2022/09/07 06:22:21;;;;;;;19.63;17.53;;;19.50;89.10;;;;;;6136137;23;20161;-94
2022/09/07 06:25:07;;;;;;;21.53;19.07;;;19.40;89.10;;;;;;6116064;23;20464;-95
2022/09/07 06:27:36;;;;;;;20.67;16.80;;;19.50;87.30;;;;;;6138416;23;20145;-94
2022/09/07 06:30:09;;;;;;;18.50;16.47;;;19.60;83.90;;;;;;6148592;23;20152;-96
2022/09/07 06:32:45;;;;;;;16.60;14.90;;;19.60;84.10;;;;;;6143399;23;20157;-96
2022/09/07 06:35:52;;;;;;;17.20;15.10;;;19.70;83.10;;;;;;6143402;23;20154;-95
2022/09/07 06:38:38;;;;;;;17.90;15.43;;;19.50;82.50;;;;;;6166667;23;20145;-95
2022/09/07 06:41:22;;;;;;;16.80;15.03;;;19.50;85.90;;;;;;6138265;23;20179;-95
2022/09/07 06:44:36;;;;;;;19.77;15.33;;;19.50;85.00;;;;;;6144727;23;20258;-93
2022/09/07 06:47:26;;;;;;;18.47;14.80;;;19.60;83.00;;;;;;6170088;23;20170;-95
2022/09/07 06:50:16;;;;;;;17.00;14.70;;;19.80;79.70;;;;;;6170543;23;20147;-95
2022/09/07 06:52:52;;;;;;;18.97;15.07;;;20.00;75.70;;;;;;6155554;23;20127;-96
2022/09/07 06:56:16;;;;;;;;;;;;;;;;;;;;;
2022/09/07 06:59:28;;;;;;;16.30;13.73;;;20.20;60.20;;;;;;6172499;23;20133;-95
2022/09/07 07:02:09;;;;;;;16.87;13.53;;;20.30;54.10;;;;;;6157434;23;20149;-94
2022/09/07 07:05:17;;;;;;;16.90;14.03;;;20.30;57.50;;;;;;6127915;23;20169;-95
2022/09/07 07:08:02;;;;;;;68.40;20.20;;;20.30;57.50;;;;;;6168514;23;20155;-94
2022/09/07 07:19:38;;;;;;;15.33;11.27;;;20.10;54.30;;;;;;6161319;23;20170;-95
2022/09/07 07:22:17;;;;;;;15.90;10.23;;;20.20;52.60;;;;;;6140293;23;20178;-94
2022/09/07 07:25:17;;;;;;;14.57;9.77;;;20.30;50.60;;;;;;6137433;23;20167;-94
2022/09/07 07:28:01;;;;;;;12.60;9.07;;;20.40;42.20;;;;;;6157367;23;20157;-95
2022/09/07 07:30:32;;;;;;;11.43;8.27;;;20.50;41.00;;;;;;6157780;23;20162;-94
2022/09/07 07:33:52;;;;;;;10.40;8.50;;;20.60;34.10;;;;;;6161248;23;20139;-92
2022/09/07 07:36:36;;;;;;;11.97;8.53;;;20.60;27.60;;;;;;6158345;23;20173;-94
2022/09/07 07:39:59;;;;;;;13.87;8.50;;;20.70;20.50;;;;;;6158277;23;20144;-93
2022/09/07 07:43:28;;;;;;;13.70;8.87;;;20.80;21.60;;;;;;6183636;23;20141;-94
2022/09/07 07:46:02;;;;;;;12.93;7.40;;;20.90;15.30;;;;;;6172866;23;20164;-81
2022/09/07 07:48:30;;;;;;;12.63;7.27;;;21.20;7.40;;;;;;6162881;23;20139;-85
2022/09/07 07:51:04;;;;;;;11.07;6.97;;;21.30;1.00;;;;;;6158300;23;20163;-84
2022/09/07 07:53:33;;;;;;;11.87;6.80;;;21.50;1.00;;;;;;6155999;23;20207;-83
2022/09/07 07:56:00;;;;;;;8.83;6.47;;;21.60;1.00;;;;;;6163757;23;20639;-86
2022/09/07 07:58:27;;;;;;;9.70;6.23;;;21.80;1.00;;;;;;6133056;23;20152;-84
2022/09/07 08:00:59;;;;;;;11.20;6.17;;;21.90;1.00;;;;;;6164026;23;20139;-91
2022/09/07 08:03:42;;;;;;;11.27;5.73;;;21.90;1.00;;;;;;6138112;23;20672;-90
2022/09/07 08:06:21;;;;;;;11.47;5.77;;;21.80;1.00;;;;;;6138075;23;20239;-86
2022/09/07 08:08:49;;;;;;;9.47;5.27;;;21.80;1.00;;;;;;6157169;23;20154;-84
2022/09/07 08:11:17;;;;;;;9.87;4.77;;;22.00;1.00;;;;;;6134351;23;20240;-84
2022/09/07 08:13:45;;;;;;;9.37;4.70;;;22.40;1.00;;;;;;6135772;23;20173;-85
2022/09/07 08:16:12;;;;;;;10.33;5.13;;;22.60;1.00;;;;;;6140734;23;20518;-85
2022/09/07 08:18:38;;;;;;;9.90;4.70;;;22.70;1.00;;;;;;6136292;23;20150;-84
2022/09/07 08:21:08;;;;;;;6.63;4.13;;;22.60;1.00;;;;;;6135512;23;20166;-86
2022/09/07 08:23:43;;;;;;;10.43;3.93;;;22.30;1.00;;;;;;6141079;23;20455;-89
2022/09/07 08:26:27;;;;;;;10.40;4.23;;;22.40;1.00;;;;;;6166276;23;20137;-86
2022/09/07 08:29:02;;;;;;;12.47;4.90;;;22.40;1.00;;;;;;6155530;23;20136;-85
2022/09/07 08:31:28;;;;;;;10.23;4.20;;;22.70;1.00;;;;;;6156614;23;20156;-85
2022/09/07 08:33:54;;;;;;;9.47;3.20;;;22.70;1.00;;;;;;6142610;23;20150;-84
2022/09/07 08:36:20;;;;;;;9.13;3.67;;;22.60;1.00;;;;;;6133454;23;20574;-84
2022/09/07 08:38:53;;;;;;;8.53;4.20;;;22.80;1.00;;;;;;6159800;23;20548;-84
2022/09/07 08:41:44;;;;;;;10.17;3.63;;;22.90;1.00;;;;;;6132850;23;20169;-88
2022/09/07 08:44:25;;;;;;;9.33;3.40;;;22.90;1.00;;;;;;6133201;23;20169;-82
2022/09/07 08:47:13;;;;;;;5.23;3.20;;;23.00;1.00;;;;;;6133272;23;20355;-84
2022/09/07 08:50:40;;;;;;;9.03;3.37;;;23.00;1.00;;;;;;6153708;23;20197;-84
2022/09/07 08:53:18;;;;;;;8.53;3.50;;;23.00;1.00;;;;;;6029202;23;20175;-88
2022/09/07 08:56:04;;;;;;;8.10;3.90;;;23.00;1.00;;;;;;6022025;23;20236;-88
2022/09/07 08:58:30;;;;;;;9.20;4.50;;;23.00;1.00;;;;;;6098351;23;20150;-88
2022/09/07 09:00:56;;;;;;;7.67;3.70;;;23.00;1.00;;;;;;6159921;23;20161;-89
2022/09/07 09:03:27;;;;;;;8.57;3.80;;;23.00;1.00;;;;;;6134556;23;20149;-89
2022/09/07 09:06:07;;;;;;;10.10;3.60;;;23.10;1.00;;;;;;6133361;23;20185;-87
2022/09/07 09:09:09;;;;;;;8.97;4.13;;;23.10;1.00;;;;;;6132670;23;20484;-87
2022/09/07 09:12:05;;;;;;;7.67;4.57;;;23.10;1.00;;;;;;6133939;23;20149;-89
2022/09/07 09:15:00;;;;;;;8.17;4.27;;;23.00;1.00;;;;;;6159280;23;20623;-88
2022/09/07 09:18:22;;;;;;;7.43;4.20;;;23.00;1.00;;;;;;6134467;23;20220;-89
2022/09/07 09:20:54;;;;;;;10.27;3.90;;;22.70;1.00;;;;;;6161282;23;20154;-89
2022/09/07 09:23:30;;;;;;;8.50;3.93;;;22.60;1.00;;;;;;6138114;23;20231;-88
2022/09/07 09:26:07;;;;;;;7.17;3.30;;;22.60;1.00;;;;;;6136754;23;20148;-91
2022/09/07 09:28:37;;;;;;;6.90;2.93;;;22.70;1.00;;;;;;6136327;23;20586;-90
2022/09/07 09:31:41;;;;;;;6.80;3.30;;;22.80;1.00;;;;;;6138441;23;20189;-90
2022/09/07 09:34:17;;;;;;;7.63;3.13;;;22.80;1.00;;;;;;6161511;23;20157;-89
2022/09/07 09:37:05;;;;;;;6.63;2.33;;;22.80;1.00;;;;;;6165981;23;20275;-88
2022/09/07 09:39:36;;;;;;;8.67;2.50;;;22.90;1.00;;;;;;6136549;23;20145;-89
2022/09/07 09:42:29;;;;;;;7.00;2.00;;;23.00;1.00;;;;;;6135323;23;20164;-88
2022/09/07 09:45:28;;;;;;;7.07;2.30;;;22.80;1.00;;;;;;6136819;23;20153;-91
2022/09/07 09:48:21;;;;;;;7.17;2.03;;;22.80;1.00;;;;;;6136065;23;20217;-89
2022/09/07 09:50:52;;;;;;;5.50;1.97;;;22.60;1.00;;;;;;6135711;23;20153;-88
2022/09/07 09:53:48;;;;;;;6.07;1.80;;;22.60;1.00;;;;;;6162723;23;20448;-90
2022/09/07 09:56:15;;;;;;;6.63;1.93;;;22.80;1.00;;;;;;6137336;23;20201;-88
2022/09/07 09:58:50;;;;;;;4.90;2.10;;;22.90;1.00;;;;;;6162260;23;20146;-89
2022/09/07 10:01:34;;;;;;;6.50;1.67;;;22.90;1.00;;;;;;6165339;23;20149;-90
2022/09/07 10:04:37;;;;;;;5.90;2.40;;;23.00;1.00;;;;;;6138576;23;20150;-89
2022/09/07 10:07:26;;;;;;;7.47;2.23;;;23.20;1.00;;;;;;6138316;23;20173;-90
2022/09/07 10:09:58;;;;;;;5.40;2.10;;;23.40;1.00;;;;;;6162282;23;20153;-91
2022/09/07 10:12:45;;;;;;;6.83;1.90;;;23.50;1.00;;;;;;6135559;23;20142;-90
2022/09/07 10:15:33;;;;;;;3.80;1.53;;;23.60;1.00;;;;;;6136391;23;20160;-89
2022/09/07 10:18:42;;;;;;;42.40;6.43;;;23.60;1.00;;;;;;6137628;23;20238;-89
2022/09/07 10:24:39;;;;;;;7.60;1.90;;;23.60;1.00;;;;;;6163429;23;20159;-89
2022/09/07 10:27:39;;;;;;;14.20;2.30;;;23.60;1.00;;;;;;6135780;23;20158;-89
2022/09/07 10:30:44;;;;;;;4.90;1.67;;;23.80;1.00;;;;;;6136165;23;20232;-89
2022/09/07 10:33:41;;;;;;;6.90;2.30;;;23.80;1.00;;;;;;6166057;23;20179;-90
2022/09/07 10:36:46;;;;;;;7.17;2.13;;;23.80;1.00;;;;;;6139930;23;20191;-91
2022/09/07 10:39:56;;;;;;;5.97;2.30;;;24.00;1.00;;;;;;6141414;23;20142;-91
2022/09/07 10:46:16;;;;;;;10.23;2.10;;;24.50;1.00;;;;;;6162954;23;20524;-91
2022/09/07 10:49:32;;;;;;;5.47;2.07;;;24.40;1.00;;;;;;6135911;23;20571;-90
2022/09/07 10:52:18;;;;;;;8.37;2.30;;;24.30;1.00;;;;;;6161333;23;20147;-91
2022/09/07 10:55:05;;;;;;;8.27;2.00;;;24.30;1.00;;;;;;6134320;23;20225;-90
2022/09/07 10:58:09;;;;;;;9.47;2.73;;;24.40;1.00;;;;;;6135259;23;20194;-90
2022/09/07 11:00:57;;;;;;;8.43;1.83;;;24.60;1.00;;;;;;6160177;23;20149;-90
2022/09/07 11:03:44;;;;;;;10.70;2.33;;;24.30;99.90;;;;;;6134766;23;20158;-90
2022/09/07 11:06:44;;;;;;;5.53;1.90;;;24.20;1.00;;;;;;6162238;23;20157;-90
2022/09/07 11:09:39;;;;;;;5.27;1.80;;;24.20;1.00;;;;;;6145434;23;20587;-88
2022/09/07 11:12:27;;;;;;;6.30;1.83;;;24.30;1.00;;;;;;6137419;23;20154;-90
2022/09/07 11:15:13;;;;;;;12.10;11.00;;;24.40;1.00;;;;;;6137912;23;20187;-90
2022/09/07 11:18:22;;;;;;;5.93;2.03;;;24.40;1.00;;;;;;6144217;23;20181;-89
2022/09/07 11:21:41;;;;;;;7.07;2.47;;;24.40;1.00;;;;;;6156034;23;20213;-91
2022/09/07 11:24:16;;;;;;;8.03;1.93;;;24.50;99.90;;;;;;6172015;23;20186;-91
2022/09/07 11:30:19;;;;;;;8.33;2.30;;;24.60;99.90;;;;;;6166294;23;20157;-90
2022/09/07 11:33:42;;;;;;;7.97;2.20;;;24.70;99.90;;;;;;6140146;23;20138;-91
2022/09/07 11:36:19;;;;;;;8.73;2.30;;;24.50;99.90;;;;;;6084346;23;20224;-89
2022/09/07 11:39:16;;;;;;;6.97;2.17;;;24.60;99.90;;;;;;6070140;23;20212;-89
2022/09/07 11:41:56;;;;;;;7.43;1.90;;;24.60;99.90;;;;;;6133876;23;20182;-90
2022/09/07 11:44:29;;;;;;;8.37;1.80;;;24.60;99.90;;;;;;6179905;23;20182;-90
2022/09/07 11:47:51;;;;;;;8.20;2.00;;;24.70;99.90;;;;;;6185335;23;20139;-90
2022/09/07 11:50:22;;;;;;;11.53;2.30;;;24.80;99.90;;;;;;6166820;23;20210;-90
2022/09/07 11:53:16;;;;;;;8.53;2.20;;;25.00;99.90;;;;;;6169140;23;20139;-91
2022/09/07 11:55:52;;;;;;;6.13;1.83;;;25.10;99.90;;;;;;6138858;23;20174;-91
2022/09/07 12:02:15;;;;;;;8.03;2.30;;;25.40;99.90;;;;;;6164160;23;20595;-91
2022/09/07 12:05:14;;;;;;;5.30;1.97;;;25.40;99.90;;;;;;6135879;23;20642;-93
2022/09/07 12:08:14;;;;;;;6.40;1.83;;;25.60;99.90;;;;;;6101983;23;20157;-92
2022/09/07 12:11:18;;;;;;;5.17;1.70;;;25.60;20.10;;;;;;6046995;23;20153;-89
2022/09/07 12:13:59;;;;;;;6.70;1.97;;;25.40;93.90;;;;;;6036870;23;20154;-92
2022/09/07 12:16:47;;;;;;;6.07;2.30;;;25.30;99.90;;;;;;6145581;23;20244;-90
2022/09/07 12:19:44;;;;;;;6.57;2.00;;;25.20;99.90;;;;;;6158014;23;20147;-89
2022/09/07 12:22:21;;;;;;;6.20;1.73;;;25.00;1.00;;;;;;6157821;23;20154;-90
2022/09/07 12:25:13;;;;;;;6.23;2.00;;;25.00;66.00;;;;;;6150563;23;20158;-91
2022/09/07 12:27:39;;;;;;;7.27;1.90;;;24.90;99.90;;;;;;6141861;23;20216;-91
2022/09/07 12:30:05;;;;;;;7.07;1.70;;;25.00;99.90;;;;;;6166280;23;20165;-91
2022/09/07 12:32:50;;;;;;;5.90;2.20;;;25.20;1.00;;;;;;6137839;23;20150;-90
2022/09/07 12:39:23;;;;;;;4.80;1.80;;;25.40;1.00;;;;;;6164793;23;20197;-90
2022/09/07 12:42:25;;;;;;;6.40;2.20;;;25.30;1.00;;;;;;6159909;23;20623;-91
2022/09/07 12:48:16;;;;;;;7.40;2.13;;;25.50;1.00;;;;;;6160987;23;20627;-90
2022/09/07 12:51:15;;;;;;;9.13;2.30;;;25.50;66.70;;;;;;6135170;23;20158;-90
2022/09/07 12:54:05;;;;;;;8.00;2.10;;;25.50;18.00;;;;;;6134958;23;20143;-92
2022/09/07 12:56:57;;;;;;;8.23;2.53;;;25.50;1.00;;;;;;6136677;23;20189;-91
2022/09/07 13:00:01;;;;;;;8.17;2.10;;;25.80;1.00;;;;;;6136083;23;20234;-92
2022/09/07 13:02:55;;;;;;;7.07;2.40;;;26.00;1.00;;;;;;6139133;23;20241;-92
2022/09/07 13:05:30;;;;;;;10.90;2.30;;;26.00;1.00;;;;;;6153575;23;20181;-92
2022/09/07 13:08:27;;;;;;;9.10;2.23;;;25.80;1.00;;;;;;6152030;23;20174;-91
2022/09/07 13:10:53;;;;;;;8.83;2.20;;;25.70;1.00;;;;;;6147162;23;20145;-91
2022/09/07 13:13:28;;;;;;;9.03;2.77;;;25.70;1.00;;;;;;6150837;23;20143;-91
2022/09/07 13:16:00;;;;;;;6.07;2.50;;;25.60;3.60;;;;;;6153848;23;20208;-92
2022/09/07 13:18:28;;;;;;;9.13;2.60;;;25.60;52.30;;;;;;6139729;23;20158;-91
2022/09/07 13:21:17;;;;;;;8.03;2.30;;;25.50;1.00;;;;;;6141409;23;20161;-91
2022/09/07 13:24:20;;;;;;;11.87;2.50;;;25.50;11.20;;;;;;6150802;23;20150;-91
2022/09/07 13:27:26;;;;;;;4.47;1.70;;;25.30;1.00;;;;;;6141179;23;20150;-91
2022/09/07 13:30:24;;;;;;;5.40;1.90;;;25.50;1.00;;;;;;6138401;23;20161;-92
2022/09/07 13:33:43;;;;;;;7.47;1.90;;;25.30;1.00;;;;;;6136281;23;20151;-91
2022/09/07 13:36:56;;;;;;;7.80;2.23;;;25.20;99.90;;;;;;6154504;23;20178;-92
2022/09/07 13:39:40;;;;;;;7.53;2.60;;;25.00;28.60;;;;;;6170379;23;20595;-91
2022/09/07 13:42:31;;;;;;;9.80;2.40;;;25.00;1.00;;;;;;6136833;23;20229;-91
2022/09/07 13:45:00;;;;;;;7.33;1.90;;;25.20;1.00;;;;;;6137658;23;20150;-91
2022/09/07 13:48:09;;;;;;;8.83;2.03;;;25.20;1.00;;;;;;6119807;23;20150;-92
2022/09/07 13:50:47;;;;;;;7.43;1.87;;;25.30;1.00;;;;;;6027074;23;20157;-91
2022/09/07 13:53:45;;;;;;;7.93;1.73;;;25.40;99.90;;;;;;6052793;23;20153;-91
2022/09/07 13:56:40;;;;;;;6.27;1.90;;;25.60;92.10;;;;;;6029351;23;20181;-92
2022/09/07 13:59:30;;;;;;;5.63;2.17;;;25.70;99.90;;;;;;6123739;23;20158;-92
2022/09/07 14:01:59;;;;;;;6.63;1.87;;;25.70;99.90;;;;;;6114108;23;20165;-92
2022/09/07 14:04:51;;;;;;;7.20;2.30;;;25.70;99.90;;;;;;6143909;23;20234;-90
2022/09/07 14:07:32;;;;;;;6.73;2.10;;;25.70;99.90;;;;;;6154872;23;20144;-91
2022/09/07 14:10:22;;;;;;;7.07;2.40;;;25.50;99.90;;;;;;6147199;23;20146;-92
2022/09/07 14:13:04;;;;;;;7.77;2.60;;;25.60;99.90;;;;;;6150393;23;20127;-93
2022/09/07 14:15:59;;;;;;;7.40;2.10;;;25.60;99.90;;;;;;6171437;23;20647;-91
2022/09/07 14:18:32;;;;;;;6.83;1.90;;;25.70;99.90;;;;;;6137322;23;20178;-91
2022/09/07 14:21:24;;;;;;;7.90;2.27;;;25.70;99.90;;;;;;6137023;23;20257;-91
2022/09/07 14:23:57;;;;;;;6.70;1.87;;;26.00;99.90;;;;;;6149711;23;20150;-91
2022/09/07 14:26:26;;;;;;;5.27;1.73;;;26.10;1.00;;;;;;6154860;23;20119;-92
2022/09/07 14:29:34;;;;;;;5.77;1.60;;;26.10;98.90;;;;;;6154849;23;20225;-92
2022/09/07 14:32:07;;;;;;;6.63;1.70;;;26.20;1.00;;;;;;6160312;23;20213;-90
2022/09/07 14:34:36;;;;;;;6.50;1.83;;;26.10;99.90;;;;;;6139483;23;20229;-90
2022/09/07 14:37:29;;;;;;;9.23;2.80;;;26.10;69.00;;;;;;6142053;23;20185;-90
2022/09/07 14:40:24;;;;;;;9.07;2.23;;;26.00;99.90;;;;;;6138747;23;20178;-91
2022/09/07 14:42:54;;;;;;;7.13;2.37;;;26.00;99.90;;;;;;6160270;23;20143;-91
2022/09/07 14:46:08;;;;;;;5.53;1.63;;;25.90;99.90;;;;;;6133519;23;20208;-89
2022/09/07 14:48:47;;;;;;;6.07;2.17;;;25.80;1.00;;;;;;6157780;23;20147;-90
2022/09/07 14:51:42;;;;;;;7.83;2.37;;;25.80;1.00;;;;;;6136127;23;20230;-89
2022/09/07 14:54:29;;;;;;;10.00;2.27;;;26.00;99.90;;;;;;6141470;23;20150;-89
2022/09/07 14:57:13;;;;;;;9.37;2.00;;;26.10;99.90;;;;;;6135568;23;20189;-90
2022/09/07 15:03:32;;;;;;;10.40;2.17;;;26.30;2.80;;;;;;6166707;23;20145;-90
2022/09/07 15:12:44;;;;;;;6.93;1.90;;;26.50;99.90;;;;;;6169180;23;20191;-91
2022/09/07 15:15:29;;;;;;;8.27;2.37;;;26.30;99.90;;;;;;6150136;23;20130;-90
2022/09/07 15:18:33;;;;;;;5.70;1.87;;;26.30;16.80;;;;;;6177496;23;20169;-90
2022/09/07 15:24:56;;;;;;;6.17;1.53;;;26.10;1.00;;;;;;6177912;23;20215;-90
2022/09/07 15:28:12;;;;;;;9.50;2.10;;;26.00;99.90;;;;;;6157940;23;20144;-89
2022/09/07 15:34:11;;;;;;;5.97;1.70;;;26.00;99.90;;;;;;6182737;23;20142;-89
2022/09/07 15:37:42;;;;;;;8.13;2.17;;;25.90;1.00;;;;;;6181628;23;20239;-89
2022/09/07 15:40:15;;;;;;;7.87;2.07;;;25.90;1.00;;;;;;6153951;23;20249;-94
2022/09/07 15:42:48;;;;;;;7.40;2.30;;;25.90;1.00;;;;;;6138735;23;20182;-89
2022/09/07 15:45:14;;;;;;;7.23;2.10;;;25.90;1.00;;;;;;6139656;23;20176;-89
2022/09/07 15:47:52;;;;;;;8.07;2.10;;;26.00;1.00;;;;;;6139466;23;20208;-90
2022/09/07 15:50:18;;;;;;;5.87;2.10;;;26.20;1.00;;;;;;6166637;23;20173;-88
2022/09/07 15:52:46;;;;;;;9.18;2.55;;;26.50;1.00;;;;;;6146087;23;20150;-88
2022/09/07 15:55:24;;;;;;;8.07;2.20;;;26.60;1.00;;;;;;6148598;23;20141;-88
2022/09/07 16:04:36;;;;;;;5.83;2.30;;;26.20;1.00;;;;;;6163947;23;20147;-88